AFR96PZ LFPO-LFKJ
Flight info
| Callsign | AFR96PZ |
|---|---|
| Flight time | 1h 48m |
| Altitude | 35000 |
| Route | LATRA DCT LAMUT DCT UTUVA DCT TITVA DCT NOQAS DCT OTROT DCT RETNO DCT KOLON DCT OMARD M623 VAREK |
| Aircraft | A320/M-SDE3FGHIRWY/LB1 |
Departure
| Time | 2026-04-26 17:22 |
|---|---|
| Airport | Paris-Orly Airport (LFPO) |
Arrival
| Time | 2026-04-26 19:11 |
|---|---|
| Airport | Ajaccio Napoléon Bonaparte airport (LFKJ) |
| Time | Latitude | Longitude | Altitude | Speed | Heading |
|---|---|---|---|---|---|
| 2026-04-26 16:57 | 48.72724 | 2.35714 | 281 ft | 0 kts | 147° |
| 2026-04-26 17:12 | 48.72747 | 2.35691 | 281 ft | 2 kts | 147° |
| 2026-04-26 17:12 | 48.72760 | 2.35679 | 281 ft | 2 kts | 147° |
| 2026-04-26 17:13 | 48.72778 | 2.35675 | 281 ft | 1 kts | 236° |
| 2026-04-26 17:13 | 48.72781 | 2.35681 | 282 ft | 0 kts | 262° |
| 2026-04-26 17:13 | 48.72781 | 2.35691 | 282 ft | 0 kts | 256° |
| 2026-04-26 17:16 | 48.72780 | 2.35679 | 281 ft | 3 kts | 256° |
| 2026-04-26 17:16 | 48.72769 | 2.35628 | 280 ft | 6 kts | 249° |
| 2026-04-26 17:16 | 48.72751 | 2.35541 | 279 ft | 9 kts | 253° |
| 2026-04-26 17:16 | 48.72714 | 2.35493 | 279 ft | 7 kts | 184° |
| 2026-04-26 17:17 | 48.72673 | 2.35516 | 279 ft | 6 kts | 156° |
| 2026-04-26 17:17 | 48.72624 | 2.35540 | 279 ft | 8 kts | 168° |
| 2026-04-26 17:17 | 48.72563 | 2.35555 | 279 ft | 9 kts | 170° |
| 2026-04-26 17:17 | 48.72495 | 2.35581 | 279 ft | 10 kts | 162° |
| 2026-04-26 17:18 | 48.72420 | 2.35617 | 279 ft | 11 kts | 162° |
| 2026-04-26 17:18 | 48.72338 | 2.35638 | 279 ft | 12 kts | 187° |
| 2026-04-26 17:18 | 48.72252 | 2.35602 | 279 ft | 13 kts | 193° |
| 2026-04-26 17:18 | 48.72162 | 2.35624 | 280 ft | 13 kts | 163° |
| 2026-04-26 17:19 | 48.72080 | 2.35673 | 279 ft | 0 kts | 149° |
| 2026-04-26 17:19 | 48.72078 | 2.35675 | 279 ft | 0 kts | 149° |
| 2026-04-26 17:20 | 48.72074 | 2.35678 | 279 ft | 0 kts | 148° |
| 2026-04-26 17:20 | 48.72073 | 2.35679 | 279 ft | 0 kts | 148° |
| 2026-04-26 17:20 | 48.72065 | 2.35687 | 279 ft | 0 kts | 146° |
| 2026-04-26 17:20 | 48.72054 | 2.35701 | 280 ft | 4 kts | 133° |
| 2026-04-26 17:21 | 48.72024 | 2.35763 | 281 ft | 10 kts | 120° |
| 2026-04-26 17:21 | 48.71981 | 2.35885 | 282 ft | 16 kts | 115° |
| 2026-04-26 17:21 | 48.71975 | 2.36051 | 282 ft | 17 kts | 72° |
| 2026-04-26 17:21 | 48.72081 | 2.36600 | 282 ft | 90 kts | 73° |
| 2026-04-26 17:22 | 48.72304 | 2.37806 | 289 ft | 149 kts | 73° |
| 2026-04-26 17:22 | 48.72596 | 2.39406 | 701 ft | 163 kts | 74° |
| 2026-04-26 17:22 | 48.72869 | 2.41064 | 1303 ft | 168 kts | 75° |
| 2026-04-26 17:22 | 48.73177 | 2.42765 | 2030 ft | 169 kts | 73° |
| 2026-04-26 17:23 | 48.73468 | 2.44481 | 2578 ft | 179 kts | 74° |
| 2026-04-26 17:23 | 48.73822 | 2.46362 | 3029 ft | 197 kts | 72° |
| 2026-04-26 17:23 | 48.74174 | 2.48521 | 3449 ft | 221 kts | 79° |
| 2026-04-26 17:23 | 48.74343 | 2.50909 | 3979 ft | 239 kts | 86° |
| 2026-04-26 17:24 | 48.74332 | 2.53497 | 4492 ft | 257 kts | 90° |
| 2026-04-26 17:24 | 48.74177 | 2.56254 | 5183 ft | 267 kts | 104° |
| 2026-04-26 17:24 | 48.73248 | 2.58679 | 5981 ft | 273 kts | 135° |
| 2026-04-26 17:24 | 48.71622 | 2.60129 | 6800 ft | 278 kts | 162° |
| 2026-04-26 17:25 | 48.69722 | 2.60797 | 7616 ft | 282 kts | 167° |
| 2026-04-26 17:25 | 48.67825 | 2.61431 | 8378 ft | 286 kts | 166° |
| 2026-04-26 17:25 | 48.65861 | 2.62107 | 9164 ft | 289 kts | 168° |
| 2026-04-26 17:25 | 48.63865 | 2.62223 | 9903 ft | 293 kts | 190° |
| 2026-04-26 17:26 | 48.61944 | 2.61225 | 10644 ft | 295 kts | 206° |
| 2026-04-26 17:26 | 48.60080 | 2.59767 | 11093 ft | 310 kts | 208° |
| 2026-04-26 17:26 | 48.58107 | 2.58175 | 11438 ft | 328 kts | 208° |
| 2026-04-26 17:26 | 48.56043 | 2.56529 | 11935 ft | 339 kts | 207° |
| 2026-04-26 17:27 | 48.53943 | 2.54885 | 12640 ft | 342 kts | 207° |
| 2026-04-26 17:27 | 48.51830 | 2.53248 | 13396 ft | 345 kts | 207° |
| 2026-04-26 17:27 | 48.49704 | 2.51608 | 14034 ft | 349 kts | 207° |
| 2026-04-26 17:27 | 48.47525 | 2.49979 | 14684 ft | 352 kts | 205° |
| 2026-04-26 17:28 | 48.45254 | 2.48543 | 15364 ft | 355 kts | 201° |
| 2026-04-26 17:28 | 48.42942 | 2.47367 | 15994 ft | 358 kts | 198° |
| 2026-04-26 17:28 | 48.40527 | 2.46269 | 16604 ft | 361 kts | 198° |
| 2026-04-26 17:28 | 48.38145 | 2.45191 | 17175 ft | 365 kts | 198° |
| 2026-04-26 17:29 | 48.35689 | 2.44079 | 17751 ft | 367 kts | 198° |
| 2026-04-26 17:29 | 48.34084 | 2.43352 | 18123 ft | 369 kts | 198° |
| 2026-04-26 17:29 | 48.30782 | 2.41922 | 18851 ft | 374 kts | 193° |
| 2026-04-26 17:29 | 48.28154 | 2.41647 | 19347 ft | 381 kts | 177° |
| 2026-04-26 17:30 | 48.25580 | 2.42394 | 19859 ft | 386 kts | 163° |
| 2026-04-26 17:30 | 48.23035 | 2.43719 | 20366 ft | 389 kts | 161° |
| 2026-04-26 17:30 | 48.20462 | 2.45138 | 20841 ft | 393 kts | 160° |
| 2026-04-26 17:30 | 48.17895 | 2.46549 | 21325 ft | 396 kts | 161° |
| 2026-04-26 17:31 | 48.15339 | 2.47930 | 21783 ft | 399 kts | 161° |
| 2026-04-26 17:31 | 48.12703 | 2.49337 | 22251 ft | 402 kts | 161° |
| 2026-04-26 17:31 | 48.10046 | 2.50743 | 22711 ft | 405 kts | 161° |
| 2026-04-26 17:31 | 48.07409 | 2.52127 | 23152 ft | 408 kts | 162° |
| 2026-04-26 17:32 | 48.04711 | 2.53475 | 23599 ft | 411 kts | 162° |
| 2026-04-26 17:32 | 48.01977 | 2.54817 | 24026 ft | 414 kts | 162° |
| 2026-04-26 17:32 | 47.99236 | 2.56160 | 24447 ft | 417 kts | 162° |
| 2026-04-26 17:32 | 47.96491 | 2.57505 | 24852 ft | 420 kts | 162° |
| 2026-04-26 17:33 | 47.93727 | 2.58860 | 25249 ft | 423 kts | 162° |
| 2026-04-26 17:33 | 47.90888 | 2.60254 | 25648 ft | 426 kts | 162° |
| 2026-04-26 17:33 | 47.88083 | 2.61629 | 26019 ft | 429 kts | 162° |
| 2026-04-26 17:34 | 47.82403 | 2.64412 | 26742 ft | 434 kts | 162° |
| 2026-04-26 17:34 | 47.79516 | 2.65824 | 27100 ft | 437 kts | 163° |
| 2026-04-26 17:34 | 47.76625 | 2.67236 | 27438 ft | 439 kts | 163° |
| 2026-04-26 17:34 | 47.73712 | 2.68657 | 27773 ft | 442 kts | 163° |
| 2026-04-26 17:35 | 47.70787 | 2.70082 | 28086 ft | 445 kts | 163° |
| 2026-04-26 17:35 | 47.67843 | 2.71515 | 28413 ft | 447 kts | 163° |
| 2026-04-26 17:35 | 47.64883 | 2.72954 | 28715 ft | 450 kts | 163° |
| 2026-04-26 17:35 | 47.61929 | 2.74390 | 29012 ft | 452 kts | 163° |
| 2026-04-26 17:36 | 47.58935 | 2.75842 | 29305 ft | 454 kts | 162° |
| 2026-04-26 17:36 | 47.55934 | 2.77295 | 29596 ft | 457 kts | 162° |
| 2026-04-26 17:36 | 47.52937 | 2.78746 | 29870 ft | 459 kts | 163° |
| 2026-04-26 17:36 | 47.49864 | 2.80231 | 30141 ft | 461 kts | 162° |
| 2026-04-26 17:37 | 47.46831 | 2.81694 | 30403 ft | 463 kts | 162° |
| 2026-04-26 17:37 | 47.43772 | 2.83170 | 30661 ft | 465 kts | 162° |
| 2026-04-26 17:37 | 47.40702 | 2.84649 | 30923 ft | 467 kts | 162° |
| 2026-04-26 17:38 | 47.34491 | 2.87634 | 31391 ft | 471 kts | 162° |
| 2026-04-26 17:38 | 47.31395 | 2.89118 | 31651 ft | 472 kts | 162° |
| 2026-04-26 17:38 | 47.28251 | 2.90625 | 31985 ft | 472 kts | 162° |
| 2026-04-26 17:38 | 47.25176 | 2.92096 | 32310 ft | 471 kts | 163° |
| 2026-04-26 17:39 | 47.22045 | 2.93590 | 32622 ft | 470 kts | 162° |
| 2026-04-26 17:39 | 47.18947 | 2.95068 | 32901 ft | 470 kts | 162° |
| 2026-04-26 17:39 | 47.15858 | 2.96541 | 33176 ft | 470 kts | 162° |
| 2026-04-26 17:39 | 47.12757 | 2.98016 | 33470 ft | 470 kts | 163° |
| 2026-04-26 17:40 | 47.09640 | 2.99368 | 33743 ft | 469 kts | 165° |
| 2026-04-26 17:40 | 47.08594 | 2.99801 | 33835 ft | 469 kts | 165° |
| 2026-04-26 17:40 | 47.03375 | 3.01955 | 34275 ft | 469 kts | 165° |
| 2026-04-26 17:40 | 47.00240 | 3.03245 | 34533 ft | 469 kts | 165° |
| 2026-04-26 17:41 | 46.97104 | 3.04534 | 34782 ft | 469 kts | 165° |
| 2026-04-26 17:41 | 46.93944 | 3.05831 | 35000 ft | 468 kts | 165° |
| 2026-04-26 17:41 | 46.90824 | 3.07111 | 35213 ft | 468 kts | 165° |
| 2026-04-26 17:41 | 46.87690 | 3.08394 | 35407 ft | 468 kts | 165° |
| 2026-04-26 17:42 | 46.84548 | 3.09680 | 35575 ft | 468 kts | 165° |
| 2026-04-26 17:42 | 46.81450 | 3.10946 | 35715 ft | 469 kts | 165° |
| 2026-04-26 17:42 | 46.78295 | 3.12235 | 35866 ft | 469 kts | 165° |
| 2026-04-26 17:42 | 46.75158 | 3.13514 | 36010 ft | 469 kts | 165° |
| 2026-04-26 17:43 | 46.72001 | 3.14798 | 36144 ft | 469 kts | 165° |
| 2026-04-26 17:43 | 46.68900 | 3.16058 | 36265 ft | 470 kts | 165° |
| 2026-04-26 17:43 | 46.65757 | 3.17336 | 36394 ft | 470 kts | 165° |
| 2026-04-26 17:43 | 46.62610 | 3.18613 | 36499 ft | 471 kts | 165° |
| 2026-04-26 17:44 | 46.59451 | 3.19892 | 36614 ft | 471 kts | 165° |
| 2026-04-26 17:44 | 46.56290 | 3.21172 | 36757 ft | 471 kts | 165° |
| 2026-04-26 17:44 | 46.53142 | 3.22445 | 36889 ft | 472 kts | 165° |
| 2026-04-26 17:44 | 46.49992 | 3.23717 | 37022 ft | 472 kts | 165° |
| 2026-04-26 17:45 | 46.46840 | 3.24987 | 37149 ft | 472 kts | 165° |
| 2026-04-26 17:45 | 46.43679 | 3.26261 | 37167 ft | 473 kts | 165° |
| 2026-04-26 17:45 | 46.37323 | 3.28816 | 37168 ft | 473 kts | 165° |
| 2026-04-26 17:46 | 46.31020 | 3.31344 | 37166 ft | 473 kts | 165° |
| 2026-04-26 17:46 | 46.24654 | 3.33890 | 37171 ft | 473 kts | 164° |
| 2026-04-26 17:47 | 46.20434 | 3.35575 | 37177 ft | 473 kts | 164° |
| 2026-04-26 17:47 | 46.11993 | 3.38937 | 37175 ft | 473 kts | 164° |
| 2026-04-26 17:48 | 46.05658 | 3.41562 | 37167 ft | 473 kts | 158° |
| 2026-04-26 17:48 | 45.99787 | 3.45864 | 37178 ft | 472 kts | 149° |
| 2026-04-26 17:49 | 45.94088 | 3.50481 | 37172 ft | 472 kts | 149° |
| 2026-04-26 17:49 | 45.88341 | 3.55064 | 37173 ft | 472 kts | 150° |
| 2026-04-26 17:50 | 45.82581 | 3.59606 | 37174 ft | 472 kts | 150° |
| 2026-04-26 17:50 | 45.76825 | 3.64124 | 37184 ft | 472 kts | 150° |
| 2026-04-26 17:51 | 45.71046 | 3.68647 | 37192 ft | 472 kts | 150° |
| 2026-04-26 17:51 | 45.65301 | 3.73133 | 37194 ft | 471 kts | 150° |
| 2026-04-26 17:52 | 45.59569 | 3.77595 | 37184 ft | 471 kts | 150° |
| 2026-04-26 17:52 | 45.53800 | 3.82070 | 37173 ft | 471 kts | 150° |
| 2026-04-26 17:53 | 45.48046 | 3.86525 | 37178 ft | 471 kts | 150° |
| 2026-04-26 17:54 | 45.39682 | 3.93755 | 37179 ft | 469 kts | 141° |
| 2026-04-26 17:54 | 45.34806 | 3.99862 | 37178 ft | 467 kts | 132° |
| 2026-04-26 17:55 | 45.30614 | 4.06892 | 37177 ft | 465 kts | 124° |
| 2026-04-26 17:55 | 45.26819 | 4.14401 | 37176 ft | 464 kts | 123° |
| 2026-04-26 17:56 | 45.23064 | 4.21794 | 37162 ft | 465 kts | 124° |
| 2026-04-26 17:57 | 45.15463 | 4.36576 | 37170 ft | 464 kts | 124° |
| 2026-04-26 17:57 | 45.11653 | 4.43891 | 37167 ft | 464 kts | 126° |
| 2026-04-26 17:58 | 45.03266 | 4.57774 | 37142 ft | 464 kts | 129° |
| 2026-04-26 17:59 | 44.96920 | 4.68105 | 37128 ft | 463 kts | 130° |
| 2026-04-26 17:59 | 44.92697 | 4.74961 | 37120 ft | 463 kts | 130° |
| 2026-04-26 18:00 | 44.88484 | 4.81777 | 37112 ft | 463 kts | 130° |
| 2026-04-26 18:00 | 44.84288 | 4.88584 | 37112 ft | 463 kts | 130° |
| 2026-04-26 18:01 | 44.80066 | 4.95409 | 37109 ft | 463 kts | 130° |
| 2026-04-26 18:01 | 44.75817 | 5.02253 | 37106 ft | 463 kts | 130° |
| 2026-04-26 18:02 | 44.72974 | 5.06818 | 37109 ft | 463 kts | 130° |
| 2026-04-26 18:02 | 44.67318 | 5.15879 | 37133 ft | 464 kts | 130° |
| 2026-04-26 18:03 | 44.63047 | 5.22699 | 37142 ft | 464 kts | 130° |
| 2026-04-26 18:03 | 44.60749 | 5.26358 | 37149 ft | 464 kts | 131° |
| 2026-04-26 18:04 | 44.57208 | 5.31993 | 37162 ft | 464 kts | 131° |
| 2026-04-26 18:05 | 44.51077 | 5.41717 | 37172 ft | 463 kts | 131° |
| 2026-04-26 18:05 | 44.46833 | 5.48430 | 37181 ft | 464 kts | 131° |
| 2026-04-26 18:06 | 44.42570 | 5.55157 | 37180 ft | 463 kts | 131° |
| 2026-04-26 18:06 | 44.38346 | 5.62006 | 37175 ft | 463 kts | 128° |
| 2026-04-26 18:07 | 44.34630 | 5.69286 | 37178 ft | 463 kts | 124° |
| 2026-04-26 18:07 | 44.31024 | 5.76745 | 37171 ft | 463 kts | 124° |
| 2026-04-26 18:08 | 44.27432 | 5.84145 | 37173 ft | 463 kts | 125° |
| 2026-04-26 18:08 | 44.23806 | 5.91581 | 37181 ft | 463 kts | 125° |
| 2026-04-26 18:09 | 44.20200 | 5.98954 | 37170 ft | 462 kts | 125° |
| 2026-04-26 18:09 | 44.16572 | 6.06353 | 37178 ft | 462 kts | 125° |
| 2026-04-26 18:10 | 44.12951 | 6.13718 | 37174 ft | 463 kts | 125° |
| 2026-04-26 18:10 | 44.09347 | 6.21030 | 37172 ft | 463 kts | 125° |
| 2026-04-26 18:11 | 44.05694 | 6.28422 | 37169 ft | 463 kts | 125° |
| 2026-04-26 18:11 | 44.02076 | 6.35727 | 37169 ft | 463 kts | 125° |
| 2026-04-26 18:12 | 43.98415 | 6.43097 | 37175 ft | 463 kts | 125° |
| 2026-04-26 18:12 | 43.94777 | 6.50403 | 37171 ft | 463 kts | 125° |
| 2026-04-26 18:13 | 43.94187 | 6.51585 | 37178 ft | 463 kts | 125° |
| 2026-04-26 18:21 | 43.91282 | 6.57402 | 37174 ft | 464 kts | 125° |
| 2026-04-26 18:21 | 43.87616 | 6.64729 | 37171 ft | 464 kts | 125° |
| 2026-04-26 18:22 | 43.83951 | 6.72033 | 37177 ft | 464 kts | 126° |
| 2026-04-26 18:22 | 43.80267 | 6.79350 | 37177 ft | 464 kts | 126° |
| 2026-04-26 18:23 | 43.76585 | 6.86628 | 37174 ft | 464 kts | 127° |
| 2026-04-26 18:23 | 43.75892 | 6.87925 | 37175 ft | 464 kts | 128° |
| 2026-04-26 18:44 | 43.73602 | 6.91847 | 37167 ft | 463 kts | 132° |
| 2026-04-26 18:45 | 43.69141 | 6.98180 | 37157 ft | 461 kts | 139° |
| 2026-04-26 18:45 | 43.64166 | 7.03764 | 37150 ft | 460 kts | 144° |
| 2026-04-26 18:46 | 43.59075 | 7.09037 | 37146 ft | 460 kts | 144° |
| 2026-04-26 18:46 | 43.53968 | 7.14333 | 37144 ft | 461 kts | 144° |
| 2026-04-26 18:47 | 43.48851 | 7.19642 | 36763 ft | 458 kts | 144° |
| 2026-04-26 18:47 | 43.46325 | 7.22262 | 36058 ft | 461 kts | 144° |
| 2026-04-26 18:47 | 43.43782 | 7.24895 | 35220 ft | 466 kts | 144° |
| 2026-04-26 18:48 | 43.41176 | 7.27591 | 34358 ft | 470 kts | 144° |
| 2026-04-26 18:48 | 43.38562 | 7.30290 | 33457 ft | 472 kts | 144° |
| 2026-04-26 18:48 | 43.35928 | 7.33006 | 32541 ft | 473 kts | 144° |
| 2026-04-26 18:48 | 43.33300 | 7.35716 | 31586 ft | 475 kts | 144° |
| 2026-04-26 18:49 | 43.30671 | 7.38424 | 30819 ft | 472 kts | 144° |
| 2026-04-26 18:49 | 43.28079 | 7.41090 | 30261 ft | 465 kts | 144° |
| 2026-04-26 18:49 | 43.25524 | 7.43716 | 29741 ft | 458 kts | 144° |
| 2026-04-26 18:49 | 43.23007 | 7.46299 | 29243 ft | 452 kts | 144° |
| 2026-04-26 18:50 | 43.20499 | 7.48869 | 28751 ft | 445 kts | 144° |
| 2026-04-26 18:50 | 43.18034 | 7.51390 | 28266 ft | 439 kts | 144° |
| 2026-04-26 18:50 | 43.15615 | 7.53863 | 27788 ft | 433 kts | 144° |
| 2026-04-26 18:50 | 43.13239 | 7.56277 | 27307 ft | 427 kts | 145° |
| 2026-04-26 18:51 | 43.10752 | 7.58452 | 26833 ft | 420 kts | 151° |
| 2026-04-26 18:51 | 43.08169 | 7.60229 | 26376 ft | 413 kts | 158° |
| 2026-04-26 18:51 | 43.05547 | 7.61638 | 25932 ft | 408 kts | 161° |
| 2026-04-26 18:51 | 43.02899 | 7.62951 | 25485 ft | 403 kts | 161° |
| 2026-04-26 18:52 | 43.00274 | 7.64238 | 25043 ft | 398 kts | 161° |
| 2026-04-26 18:52 | 42.97666 | 7.65517 | 24594 ft | 394 kts | 162° |
| 2026-04-26 18:52 | 42.95130 | 7.66766 | 24162 ft | 390 kts | 161° |
| 2026-04-26 18:52 | 42.92600 | 7.68015 | 23733 ft | 387 kts | 161° |
| 2026-04-26 18:53 | 42.90094 | 7.69253 | 23301 ft | 383 kts | 161° |
| 2026-04-26 18:53 | 42.87599 | 7.70485 | 22856 ft | 380 kts | 161° |
| 2026-04-26 18:53 | 42.85101 | 7.71719 | 22416 ft | 377 kts | 161° |
| 2026-04-26 18:53 | 42.82669 | 7.72919 | 21985 ft | 374 kts | 161° |
| 2026-04-26 18:54 | 42.80208 | 7.74133 | 21552 ft | 372 kts | 161° |
| 2026-04-26 18:54 | 42.77815 | 7.75313 | 21124 ft | 369 kts | 161° |
| 2026-04-26 18:54 | 42.75397 | 7.76505 | 20692 ft | 367 kts | 161° |
| 2026-04-26 18:54 | 42.73032 | 7.77670 | 20271 ft | 365 kts | 161° |
| 2026-04-26 18:55 | 42.70628 | 7.78853 | 19841 ft | 362 kts | 161° |
| 2026-04-26 18:55 | 42.68292 | 7.80001 | 19416 ft | 360 kts | 161° |
| 2026-04-26 18:55 | 42.65931 | 7.81160 | 18999 ft | 358 kts | 161° |
| 2026-04-26 18:55 | 42.63623 | 7.82293 | 18608 ft | 355 kts | 161° |
| 2026-04-26 18:56 | 42.61298 | 7.83434 | 18177 ft | 354 kts | 161° |
| 2026-04-26 18:56 | 42.58989 | 7.84566 | 17746 ft | 352 kts | 160° |
| 2026-04-26 18:56 | 42.56681 | 7.85694 | 17325 ft | 351 kts | 160° |
| 2026-04-26 18:56 | 42.54394 | 7.86811 | 16903 ft | 349 kts | 160° |
| 2026-04-26 18:57 | 42.52117 | 7.87924 | 16468 ft | 349 kts | 160° |
| 2026-04-26 18:57 | 42.51376 | 7.88286 | 16322 ft | 349 kts | 160° |
| 2026-04-26 18:57 | 42.47567 | 7.90147 | 15541 ft | 350 kts | 160° |
| 2026-04-26 18:57 | 42.45263 | 7.91270 | 15070 ft | 350 kts | 160° |
| 2026-04-26 18:58 | 42.42986 | 7.92379 | 14602 ft | 350 kts | 160° |
| 2026-04-26 18:58 | 42.40699 | 7.93493 | 14142 ft | 350 kts | 160° |
| 2026-04-26 18:58 | 42.38405 | 7.94608 | 13665 ft | 350 kts | 160° |
| 2026-04-26 18:58 | 42.36119 | 7.95719 | 13196 ft | 350 kts | 160° |
| 2026-04-26 18:59 | 42.33865 | 7.96817 | 12745 ft | 349 kts | 159° |
| 2026-04-26 18:59 | 42.31761 | 7.98388 | 12257 ft | 347 kts | 137° |
| 2026-04-26 18:59 | 42.30336 | 8.00953 | 11792 ft | 344 kts | 114° |
| 2026-04-26 18:59 | 42.29454 | 8.03937 | 11355 ft | 341 kts | 110° |
| 2026-04-26 19:00 | 42.28606 | 8.06921 | 10920 ft | 338 kts | 110° |
| 2026-04-26 19:00 | 42.27758 | 8.09849 | 10512 ft | 334 kts | 111° |
| 2026-04-26 19:00 | 42.26922 | 8.12692 | 10366 ft | 320 kts | 111° |
| 2026-04-26 19:00 | 42.26112 | 8.15417 | 10257 ft | 307 kts | 111° |
| 2026-04-26 19:01 | 42.25322 | 8.18052 | 10146 ft | 295 kts | 111° |
| 2026-04-26 19:01 | 42.24560 | 8.20580 | 9836 ft | 293 kts | 111° |
| 2026-04-26 19:01 | 42.23803 | 8.23096 | 9459 ft | 292 kts | 112° |
| 2026-04-26 19:01 | 42.23037 | 8.25636 | 9093 ft | 290 kts | 112° |
| 2026-04-26 19:02 | 42.22286 | 8.28118 | 8756 ft | 287 kts | 111° |
| 2026-04-26 19:02 | 42.21539 | 8.30590 | 8432 ft | 284 kts | 111° |
| 2026-04-26 19:02 | 42.20794 | 8.33052 | 8093 ft | 282 kts | 111° |
| 2026-04-26 19:02 | 42.20297 | 8.34694 | 7871 ft | 281 kts | 111° |
| 2026-04-26 19:03 | 42.19318 | 8.37919 | 7419 ft | 278 kts | 111° |
| 2026-04-26 19:03 | 42.18596 | 8.40298 | 7116 ft | 276 kts | 111° |
| 2026-04-26 19:03 | 42.17874 | 8.42675 | 6776 ft | 275 kts | 111° |
| 2026-04-26 19:03 | 42.17149 | 8.45058 | 6430 ft | 273 kts | 111° |
| 2026-04-26 19:04 | 42.16420 | 8.47420 | 6103 ft | 271 kts | 114° |
| 2026-04-26 19:04 | 42.15404 | 8.49548 | 5774 ft | 270 kts | 130° |
| 2026-04-26 19:04 | 42.14053 | 8.51263 | 5470 ft | 268 kts | 139° |
| 2026-04-26 19:04 | 42.12597 | 8.52880 | 5148 ft | 267 kts | 140° |
| 2026-04-26 19:05 | 42.09733 | 8.56026 | 4484 ft | 264 kts | 140° |
| 2026-04-26 19:05 | 42.08324 | 8.57592 | 4183 ft | 263 kts | 140° |
| 2026-04-26 19:05 | 42.06922 | 8.59160 | 3855 ft | 262 kts | 140° |
| 2026-04-26 19:06 | 42.05532 | 8.60715 | 3537 ft | 260 kts | 140° |
| 2026-04-26 19:06 | 42.04153 | 8.62260 | 3227 ft | 259 kts | 140° |
| 2026-04-26 19:06 | 42.02762 | 8.63817 | 3129 ft | 256 kts | 140° |
| 2026-04-26 19:06 | 42.01433 | 8.65352 | 3112 ft | 242 kts | 133° |
| 2026-04-26 19:07 | 42.00625 | 8.67235 | 3005 ft | 231 kts | 104° |
| 2026-04-26 19:07 | 42.00344 | 8.69298 | 2994 ft | 225 kts | 98° |
| 2026-04-26 19:07 | 42.00108 | 8.71371 | 2976 ft | 221 kts | 98° |
| 2026-04-26 19:07 | 41.99874 | 8.73350 | 3010 ft | 203 kts | 99° |
| 2026-04-26 19:08 | 41.99647 | 8.75195 | 2761 ft | 200 kts | 99° |
| 2026-04-26 19:08 | 41.99415 | 8.77018 | 2367 ft | 195 kts | 99° |
| 2026-04-26 19:08 | 41.99189 | 8.78769 | 2011 ft | 187 kts | 99° |
| 2026-04-26 19:08 | 41.98964 | 8.80479 | 1682 ft | 182 kts | 102° |
| 2026-04-26 19:09 | 41.98464 | 8.81932 | 1409 ft | 164 kts | 133° |
| 2026-04-26 19:09 | 41.97564 | 8.82717 | 1159 ft | 149 kts | 163° |
| 2026-04-26 19:09 | 41.96589 | 8.82824 | 888 ft | 138 kts | 192° |
| 2026-04-26 19:09 | 41.95721 | 8.82376 | 669 ft | 132 kts | 206° |
| 2026-04-26 19:10 | 41.94889 | 8.81839 | 534 ft | 133 kts | 206° |
| 2026-04-26 19:10 | 41.94067 | 8.81300 | 283 ft | 130 kts | 206° |
| 2026-04-26 19:10 | 41.93245 | 8.80782 | 107 ft | 130 kts | 205° |
| 2026-04-26 19:10 | 41.92445 | 8.80284 | 24 ft | 113 kts | 205° |
| 2026-04-26 19:11 | 41.91886 | 8.79936 | 23 ft | 64 kts | 205° |
| 2026-04-26 19:11 | 41.91636 | 8.79779 | 23 ft | 15 kts | 204° |
| 2026-04-26 19:11 | 41.91574 | 8.79739 | 23 ft | 24 kts | 207° |
| 2026-04-26 19:11 | 41.91374 | 8.79605 | 23 ft | 34 kts | 206° |
| 2026-04-26 19:12 | 41.91234 | 8.79489 | 23 ft | 18 kts | 252° |
| 2026-04-26 19:12 | 41.91306 | 8.79388 | 23 ft | 16 kts | 332° |
| 2026-04-26 19:12 | 41.91425 | 8.79335 | 22 ft | 19 kts | 349° |
| 2026-04-26 19:12 | 41.91539 | 8.79392 | 23 ft | 16 kts | 19° |
| 2026-04-26 19:13 | 41.91653 | 8.79450 | 24 ft | 19 kts | 25° |
| 2026-04-26 19:13 | 41.91748 | 8.79506 | 23 ft | 7 kts | 353° |
| 2026-04-26 19:13 | 41.91774 | 8.79480 | 23 ft | 2 kts | 325° |
| 2026-04-26 19:13 | 41.91799 | 8.79467 | 23 ft | 3 kts | 343° |
| 2026-04-26 19:14 | 41.91808 | 8.79464 | 23 ft | 0 kts | 346° |